Time;durP1;ratioP1;P1;durP2;ratioP2;P2;SDS_P1;SDS_P2;PMS_P1;PMS_P2;Temp;Humidity;BMP_temperature;BMP_pressure;BME280_temperature;BME280_humidity;BME280_pressure;Samples;Min_cycle;Max_cycle;Signal;HPM_P1;HPM_P2
2022/09/04 00:01:13;;;;;;;9.90;6.40;;;13.70;99.90;;;;;;5093180;28;20197;-64
2022/09/04 00:03:50;;;;;;;7.68;5.10;;;13.70;99.90;;;;;;5092990;28;20252;-64
2022/09/04 00:06:23;;;;;;;5.65;4.80;;;13.70;99.90;;;;;;5076321;28;20205;-63
2022/09/04 00:09:03;;;;;;;4.05;3.65;;;13.70;99.90;;;;;;5093016;28;20680;-63
2022/09/04 00:11:46;;;;;;;5.75;3.83;;;13.70;99.90;;;;;;5086487;28;20205;-63
2022/09/04 00:14:20;;;;;;;4.53;3.65;;;13.70;99.90;;;;;;5096163;28;20194;-63
2022/09/04 00:16:59;;;;;;;5.65;4.47;;;13.70;99.90;;;;;;5089002;28;20202;-63
2022/09/04 00:19:34;;;;;;;5.85;4.10;;;13.70;99.90;;;;;;5076670;28;20548;-65
2022/09/04 00:22:23;;;;;;;6.10;4.25;;;13.60;99.90;;;;;;5076705;28;20680;-66
2022/09/04 00:25:02;;;;;;;4.82;3.92;;;13.60;99.90;;;;;;5076131;28;20215;-64
2022/09/04 00:27:42;;;;;;;8.02;3.83;;;13.60;99.90;;;;;;5085834;28;20225;-61
2022/09/04 00:30:18;;;;;;;9.45;3.80;;;13.60;99.90;;;;;;5086119;28;20656;-63
2022/09/04 00:32:54;;;;;;;6.30;3.75;;;13.50;99.90;;;;;;5095394;28;20190;-64
2022/09/04 00:35:29;;;;;;;7.30;3.80;;;13.50;99.90;;;;;;5092113;28;20195;-64
2022/09/04 00:38:03;;;;;;;6.82;3.80;;;13.40;99.90;;;;;;5078027;28;20215;-63
2022/09/04 00:40:34;;;;;;;4.55;3.80;;;13.40;99.90;;;;;;5075693;28;20656;-63
2022/09/04 00:43:24;;;;;;;5.03;3.83;;;13.40;99.90;;;;;;5096697;28;20637;-63
2022/09/04 00:46:12;;;;;;;4.53;4.07;;;13.30;99.90;;;;;;5090046;28;20211;-63
2022/09/04 00:49:05;;;;;;;4.78;4.05;;;13.40;99.90;;;;;;5076097;28;20684;-63
2022/09/04 00:51:42;;;;;;;6.85;4.38;;;13.40;99.90;;;;;;5076182;28;20207;-63
2022/09/04 00:54:25;;;;;;;5.43;4.03;;;13.30;99.90;;;;;;5076077;28;20198;-63
2022/09/04 00:57:43;;;;;;;4.82;4.32;;;13.30;99.90;;;;;;5075631;28;20269;-63
2022/09/04 01:00:15;;;;;;;6.70;4.45;;;13.30;99.90;;;;;;5074821;28;20203;-64
2022/09/04 01:03:03;;;;;;;5.00;3.78;;;13.20;99.90;;;;;;5076107;28;20191;-63
2022/09/04 01:05:44;;;;;;;4.40;3.85;;;13.20;99.90;;;;;;5077280;28;20225;-64
2022/09/04 01:08:24;;;;;;;3.92;3.42;;;13.20;99.90;;;;;;5083588;28;20226;-63
2022/09/04 01:11:07;;;;;;;4.38;3.53;;;13.20;99.90;;;;;;5076648;28;20702;-64
2022/09/04 01:13:41;;;;;;;3.78;3.45;;;13.20;99.90;;;;;;5075565;28;20194;-66
2022/09/04 01:16:15;;;;;;;3.50;3.20;;;13.10;99.90;;;;;;5075866;28;20190;-63
2022/09/04 01:18:55;;;;;;;4.00;3.20;;;13.10;99.90;;;;;;5084726;28;20557;-63
2022/09/04 01:21:50;;;;;;;3.30;3.00;;;13.10;99.90;;;;;;5084289;28;20221;-67
2022/09/04 01:24:32;;;;;;;3.67;3.38;;;13.10;99.90;;;;;;5068482;28;20203;-63
2022/09/04 01:27:08;;;;;;;3.10;2.80;;;13.10;99.90;;;;;;5075368;28;20577;-63
2022/09/04 01:29:49;;;;;;;2.85;2.60;;;13.00;99.90;;;;;;5075487;28;20582;-63
2022/09/04 01:32:32;;;;;;;2.92;2.63;;;13.00;99.90;;;;;;5075425;28;20198;-63
2022/09/04 01:35:07;;;;;;;2.90;2.70;;;12.90;99.90;;;;;;5073505;28;20204;-63
2022/09/04 01:38:02;;;;;;;2.75;2.50;;;12.90;99.90;;;;;;5086852;28;20229;-64
2022/09/04 01:40:39;;;;;;;3.20;2.75;;;12.90;99.90;;;;;;5095261;28;20538;-64
2022/09/04 01:43:11;;;;;;;4.60;2.80;;;12.80;99.90;;;;;;5075819;28;20600;-63
2022/09/04 01:45:59;;;;;;;3.00;2.70;;;12.80;99.90;;;;;;5075218;28;20229;-63
2022/09/04 01:48:38;;;;;;;3.20;2.65;;;12.80;99.90;;;;;;5075054;28;20223;-63
2022/09/04 01:51:18;;;;;;;3.33;2.63;;;12.80;99.90;;;;;;5074551;28;20213;-63
2022/09/04 01:53:56;;;;;;;3.03;2.40;;;12.80;99.90;;;;;;5074837;28;20696;-63
2022/09/04 01:56:33;;;;;;;4.88;4.35;;;12.80;99.90;;;;;;5074835;28;20210;-64
2022/09/04 01:59:08;;;;;;;3.70;3.40;;;12.70;99.90;;;;;;5074888;28;20215;-62
2022/09/04 02:01:44;;;;;;;3.95;3.55;;;12.70;99.90;;;;;;5074281;28;20203;-64
2022/09/04 02:04:20;;;;;;;4.50;3.13;;;12.70;99.90;;;;;;5074891;28;20210;-64
2022/09/04 02:07:00;;;;;;;5.60;3.28;;;12.70;99.90;;;;;;5074668;28;20234;-64
2022/09/04 02:09:36;;;;;;;3.83;3.45;;;12.70;99.90;;;;;;5074796;28;20199;-63
2022/09/04 02:12:17;;;;;;;2.80;2.60;;;12.70;99.90;;;;;;5072819;28;20214;-65
2022/09/04 02:14:58;;;;;;;3.78;3.03;;;12.60;99.90;;;;;;5074431;28;20566;-63
2022/09/04 02:17:36;;;;;;;4.30;3.33;;;12.60;99.90;;;;;;5074404;28;20575;-64
2022/09/04 02:20:16;;;;;;;3.90;3.25;;;12.60;99.90;;;;;;5074277;28;20216;-64
2022/09/04 02:22:51;;;;;;;3.78;3.33;;;12.60;99.90;;;;;;5088072;28;20613;-63
2022/09/04 02:25:27;;;;;;;5.60;3.50;;;12.60;99.90;;;;;;5089213;28;20918;-64
2022/09/04 02:28:09;;;;;;;4.20;3.50;;;12.60;99.90;;;;;;5074365;28;20586;-63
2022/09/04 02:30:47;;;;;;;3.78;3.30;;;12.50;99.90;;;;;;5073132;28;20199;-63
2022/09/04 02:33:30;;;;;;;3.40;2.97;;;12.50;99.90;;;;;;5072967;28;20215;-64
2022/09/04 02:36:05;;;;;;;3.70;3.17;;;12.50;99.90;;;;;;5082614;28;20213;-63
2022/09/04 02:38:44;;;;;;;3.63;3.25;;;12.50;99.90;;;;;;5094425;28;20226;-62
2022/09/04 02:41:22;;;;;;;3.28;2.97;;;12.50;99.90;;;;;;5086295;28;20194;-63
2022/09/04 02:44:02;;;;;;;3.38;2.97;;;12.40;99.90;;;;;;5094393;28;20558;-62
2022/09/04 02:46:39;;;;;;;3.50;3.00;;;12.40;99.90;;;;;;5094271;28;20226;-64
2022/09/04 02:49:19;;;;;;;3.30;3.00;;;12.50;99.90;;;;;;5092282;28;20222;-62
2022/09/04 02:52:00;;;;;;;4.88;3.42;;;12.50;99.90;;;;;;5073210;28;20578;-63
2022/09/04 02:54:48;;;;;;;5.03;3.10;;;12.40;99.90;;;;;;5072985;28;20203;-62
2022/09/04 02:57:28;;;;;;;4.55;3.40;;;12.40;99.90;;;;;;5073544;28;20234;-64
2022/09/04 03:00:06;;;;;;;3.70;3.30;;;12.40;99.90;;;;;;5072866;28;20203;-65
2022/09/04 03:02:41;;;;;;;3.90;2.95;;;12.40;99.90;;;;;;5089296;28;20204;-63
2022/09/04 03:05:19;;;;;;;3.85;3.08;;;12.40;99.90;;;;;;5093793;28;20565;-65
2022/09/04 03:07:58;;;;;;;4.40;3.40;;;12.40;99.90;;;;;;5093856;28;20712;-63
2022/09/04 03:10:31;;;;;;;4.28;3.17;;;12.40;99.90;;;;;;5084088;28;20206;-63
2022/09/04 03:13:07;;;;;;;3.08;2.78;;;12.40;99.90;;;;;;5073620;28;20210;-63
2022/09/04 03:15:40;;;;;;;3.17;2.63;;;12.40;99.90;;;;;;5073387;28;20193;-64
2022/09/04 03:18:19;;;;;;;2.60;2.40;;;12.40;99.90;;;;;;5073180;28;20226;-64
2022/09/04 03:20:54;;;;;;;4.18;2.50;;;12.40;99.90;;;;;;5083190;28;20702;-63
2022/09/04 03:23:32;;;;;;;2.88;2.60;;;12.40;99.90;;;;;;5093409;28;20202;-64
2022/09/04 03:26:19;;;;;;;3.17;2.50;;;12.30;99.90;;;;;;5080039;28;20222;-63
2022/09/04 03:29:09;;;;;;;2.72;2.50;;;12.30;99.90;;;;;;5073242;28;20574;-64
2022/09/04 03:31:47;;;;;;;2.97;2.67;;;12.30;99.90;;;;;;5072838;28;20224;-64
2022/09/04 03:34:27;;;;;;;3.35;2.40;;;12.30;99.90;;;;;;5081496;28;20194;-64
2022/09/04 03:37:13;;;;;;;3.33;2.75;;;12.30;99.90;;;;;;5093123;28;20691;-64
2022/09/04 03:39:53;;;;;;;3.35;2.78;;;12.40;99.90;;;;;;5089232;28;20581;-63
2022/09/04 03:42:34;;;;;;;4.13;2.75;;;12.40;99.90;;;;;;5073812;28;20206;-64
2022/09/04 03:45:17;;;;;;;3.72;2.47;;;12.40;99.90;;;;;;5093555;28;20213;-64
2022/09/04 03:47:55;;;;;;;2.92;2.63;;;12.40;99.90;;;;;;5092454;28;20237;-64
2022/09/04 03:50:35;;;;;;;2.55;2.30;;;12.30;99.90;;;;;;5083399;28;20210;-65
2022/09/04 03:53:15;;;;;;;3.90;2.45;;;12.30;99.90;;;;;;5072912;28;20205;-63
2022/09/04 03:56:20;;;;;;;2.80;2.50;;;12.30;99.90;;;;;;5073678;28;20203;-64
2022/09/04 03:58:59;;;;;;;2.33;2.10;;;12.30;99.90;;;;;;5082862;28;20226;-64
2022/09/04 04:01:36;;;;;;;3.05;2.15;;;12.30;99.90;;;;;;5093090;28;20190;-64
2022/09/04 04:04:42;;;;;;;2.53;2.33;;;12.30;99.90;;;;;;5093276;28;20205;-64
2022/09/04 04:07:34;;;;;;;2.35;2.15;;;12.30;99.90;;;;;;5085800;28;20586;-63
2022/09/04 04:10:15;;;;;;;2.65;2.17;;;12.30;99.90;;;;;;5075195;28;20215;-64
2022/09/04 04:13:11;;;;;;;2.60;2.40;;;12.30;99.90;;;;;;5092967;28;20202;-64
2022/09/04 04:15:54;;;;;;;3.05;2.47;;;12.20;99.90;;;;;;5092576;28;20202;-64
2022/09/04 04:18:41;;;;;;;2.83;2.35;;;12.20;99.90;;;;;;5076366;28;20234;-64
2022/09/04 04:21:17;;;;;;;2.80;2.50;;;12.30;99.90;;;;;;5072861;28;20203;-63
2022/09/04 04:24:00;;;;;;;2.28;2.08;;;12.30;99.90;;;;;;5072601;28;20747;-64
2022/09/04 04:26:39;;;;;;;3.08;2.20;;;12.20;99.90;;;;;;5072723;28;20238;-64
2022/09/04 04:29:24;;;;;;;2.60;2.40;;;12.20;99.90;;;;;;5072576;28;20219;-64
2022/09/04 04:32:13;;;;;;;2.42;2.22;;;12.20;99.90;;;;;;5072023;28;20210;-66
2022/09/04 04:34:57;;;;;;;2.10;1.90;;;12.10;99.90;;;;;;5072707;28;20207;-63
2022/09/04 04:37:36;;;;;;;2.20;2.00;;;12.10;99.90;;;;;;5072701;28;20230;-64
2022/09/04 04:40:15;;;;;;;2.90;2.60;;;12.10;99.90;;;;;;5072758;28;20210;-64
2022/09/04 04:42:52;;;;;;;2.40;2.20;;;12.10;99.90;;;;;;5072434;28;20199;-64
2022/09/04 04:48:50;;;;;;;3.35;2.60;;;12.10;99.90;;;;;;5072502;28;20239;-64
2022/09/04 04:51:39;;;;;;;4.35;2.38;;;12.10;99.90;;;;;;5069426;28;20214;-63
2022/09/04 04:54:26;;;;;;;3.15;2.60;;;12.10;99.90;;;;;;5091837;28;20210;-63
2022/09/04 04:57:00;;;;;;;10.88;6.32;;;12.10;99.90;;;;;;5084862;28;20191;-63
2022/09/04 04:59:39;;;;;;;3.33;2.60;;;12.10;99.90;;;;;;5090256;28;20212;-62
2022/09/04 05:02:17;;;;;;;2.40;2.20;;;12.00;99.90;;;;;;5075412;28;20194;-64
2022/09/04 05:04:56;;;;;;;2.83;2.63;;;12.00;99.90;;;;;;5075997;28;20216;-65
2022/09/04 05:07:33;;;;;;;3.33;2.40;;;12.00;99.90;;;;;;5075881;28;20245;-64
2022/09/04 05:10:10;;;;;;;3.05;2.35;;;12.00;99.90;;;;;;5075967;28;20210;-64
2022/09/04 05:12:55;;;;;;;4.95;2.30;;;12.10;99.90;;;;;;5089840;28;20202;-64
2022/09/04 05:15:32;;;;;;;5.93;4.90;;;12.10;99.90;;;;;;5095847;28;20202;-66
2022/09/04 05:18:10;;;;;;;5.05;4.55;;;12.10;99.90;;;;;;5095974;28;20545;-64
2022/09/04 05:20:44;;;;;;;3.50;2.63;;;12.00;99.90;;;;;;5095915;28;20201;-64
2022/09/04 05:23:22;;;;;;;3.10;2.20;;;12.00;99.90;;;;;;5079765;28;20229;-64
2022/09/04 05:26:07;;;;;;;3.33;2.60;;;12.10;99.90;;;;;;5084481;28;20203;-63
2022/09/04 05:28:48;;;;;;;3.90;2.83;;;12.00;99.90;;;;;;5075220;28;20227;-63
2022/09/04 05:31:26;;;;;;;3.00;2.70;;;12.10;99.90;;;;;;5074562;28;20668;-64
2022/09/04 05:34:02;;;;;;;5.10;2.97;;;12.10;99.90;;;;;;5080377;28;20205;-64
2022/09/04 05:36:42;;;;;;;4.93;3.03;;;12.20;99.90;;;;;;5094697;28;20198;-64
2022/09/04 05:39:18;;;;;;;4.78;3.50;;;12.30;99.90;;;;;;5090588;28;20230;-65
2022/09/04 05:42:02;;;;;;;3.60;3.30;;;12.30;99.90;;;;;;5078881;28;20683;-64
2022/09/04 05:44:54;;;;;;;7.43;4.82;;;12.30;99.90;;;;;;5093005;28;20198;-64
2022/09/04 05:47:33;;;;;;;4.07;3.20;;;12.30;99.90;;;;;;5090783;28;20230;-64
2022/09/04 05:50:26;;;;;;;3.45;3.15;;;12.40;99.90;;;;;;5095351;28;20183;-67
2022/09/04 05:53:27;;;;;;;4.60;3.60;;;12.40;99.90;;;;;;5095156;28;20637;-64
2022/09/04 05:56:12;;;;;;;3.40;3.10;;;12.50;99.90;;;;;;5087981;28;20572;-64
2022/09/04 05:58:57;;;;;;;3.83;3.35;;;12.50;99.90;;;;;;5074569;28;20222;-64
2022/09/04 06:01:51;;;;;;;6.03;3.83;;;12.60;99.90;;;;;;5074429;28;20195;-66
2022/09/04 06:04:40;;;;;;;11.18;4.07;;;12.60;99.90;;;;;;5090032;28;20202;-65
2022/09/04 06:07:17;;;;;;;4.40;3.78;;;12.70;99.90;;;;;;5088535;28;20230;-64
2022/09/04 06:09:58;;;;;;;4.20;3.80;;;12.80;99.90;;;;;;5074770;28;20205;-65
2022/09/04 06:12:41;;;;;;;4.32;3.38;;;12.90;99.90;;;;;;5087325;28;20193;-65
2022/09/04 06:15:27;;;;;;;4.65;3.95;;;13.00;99.90;;;;;;5094864;28;20535;-65
2022/09/04 06:18:11;;;;;;;4.97;4.30;;;13.10;99.90;;;;;;5088142;28;20226;-66
2022/09/04 06:20:53;;;;;;;5.07;4.50;;;13.30;99.90;;;;;;5074660;28;20202;-66
2022/09/04 06:23:55;;;;;;;5.78;4.18;;;13.40;99.90;;;;;;5074342;28;20214;-66
2022/09/04 06:26:40;;;;;;;7.82;6.57;;;13.40;99.90;;;;;;5074029;28;20205;-65
2022/09/04 06:29:48;;;;;;;7.40;6.55;;;13.50;99.90;;;;;;5073821;28;20235;-64
2022/09/04 06:32:52;;;;;;;7.13;6.28;;;13.60;99.90;;;;;;5074466;28;20210;-64
2022/09/04 06:35:33;;;;;;;5.85;5.28;;;13.70;99.90;;;;;;5049086;28;20214;-64
2022/09/04 06:38:19;;;;;;;5.57;5.00;;;13.90;99.90;;;;;;5073234;28;20222;-65
2022/09/04 06:41:02;;;;;;;6.57;5.70;;;14.10;99.90;;;;;;5075189;28;20199;-64
2022/09/04 06:43:41;;;;;;;6.00;5.40;;;14.20;99.90;;;;;;5094349;28;20179;-63
2022/09/04 06:46:21;;;;;;;8.40;5.32;;;14.30;99.90;;;;;;5094150;28;20205;-65
2022/09/04 06:49:01;;;;;;;7.88;6.13;;;14.40;99.90;;;;;;5094222;28;20226;-64
2022/09/04 06:51:44;;;;;;;8.30;7.03;;;14.50;99.90;;;;;;5073195;28;20203;-64
2022/09/04 06:54:19;;;;;;;12.05;8.27;;;14.60;99.90;;;;;;5073884;28;20183;-64
2022/09/04 06:57:07;;;;;;;8.82;7.07;;;14.70;99.90;;;;;;5073905;28;20576;-64
2022/09/04 07:00:02;;;;;;;9.07;7.50;;;14.70;99.90;;;;;;5073689;28;20195;-63
2022/09/04 07:02:48;;;;;;;10.95;7.88;;;14.80;99.90;;;;;;5069715;28;20199;-64
2022/09/04 07:05:24;;;;;;;10.07;7.88;;;15.00;99.90;;;;;;5073559;28;20198;-64
2022/09/04 07:08:03;;;;;;;9.35;8.10;;;15.20;99.90;;;;;;5073512;28;20215;-63
2022/09/04 07:10:34;;;;;;;10.88;8.68;;;15.30;99.90;;;;;;5072953;28;20351;-65
2022/09/04 07:13:23;;;;;;;9.15;7.38;;;15.60;99.90;;;;;;5073480;28;20190;-65
2022/09/04 07:16:31;;;;;;;11.60;8.05;;;15.80;99.90;;;;;;5073083;28;20226;-65
2022/09/04 07:19:37;;;;;;;13.65;9.10;;;15.80;99.90;;;;;;5079701;28;20230;-64
2022/09/04 07:22:28;;;;;;;11.27;8.73;;;15.80;99.90;;;;;;5093368;28;20564;-64
2022/09/04 07:25:11;;;;;;;11.68;9.43;;;15.80;99.90;;;;;;5093500;28;20182;-65
2022/09/04 07:27:54;;;;;;;12.52;8.75;;;15.90;99.90;;;;;;5075378;28;20234;-65
2022/09/04 07:30:24;;;;;;;12.00;9.20;;;15.90;99.90;;;;;;5073928;28;20225;-65
2022/09/04 07:32:57;;;;;;;10.93;8.38;;;15.90;99.90;;;;;;5072423;28;20203;-65
2022/09/04 07:35:35;;;;;;;11.52;8.05;;;16.00;99.90;;;;;;5091381;28;20757;-65
2022/09/04 07:38:12;;;;;;;13.35;9.30;;;16.10;99.90;;;;;;5093442;28;20205;-65
2022/09/04 07:40:44;;;;;;;13.35;10.25;;;16.20;99.90;;;;;;5093275;28;20182;-65
2022/09/04 07:43:20;;;;;;;13.85;9.25;;;16.20;99.90;;;;;;5073701;28;20203;-65
2022/09/04 07:45:57;;;;;;;12.20;9.70;;;16.30;99.90;;;;;;5091471;28;20194;-65
2022/09/04 07:48:32;;;;;;;12.75;9.20;;;16.30;99.90;;;;;;5093068;28;20584;-64
2022/09/04 07:51:09;;;;;;;13.65;9.93;;;16.40;99.90;;;;;;5090624;28;20183;-65
2022/09/04 07:53:53;;;;;;;12.25;9.40;;;16.50;99.90;;;;;;5073026;28;20179;-65
2022/09/04 07:56:34;;;;;;;13.30;10.43;;;16.70;99.90;;;;;;5073052;28;20207;-65
2022/09/04 07:59:23;;;;;;;13.80;9.30;;;16.80;99.90;;;;;;5072843;28;20563;-65
2022/09/04 08:02:17;;;;;;;12.75;9.68;;;16.80;99.90;;;;;;5074965;28;20206;-65
2022/09/04 08:05:07;;;;;;;12.00;8.88;;;16.80;99.90;;;;;;5072822;28;20206;-64
2022/09/04 08:08:15;;;;;;;10.63;9.02;;;16.90;99.90;;;;;;5072970;28;20221;-65
2022/09/04 08:10:59;;;;;;;13.65;10.25;;;16.90;99.90;;;;;;5087252;28;20213;-66
2022/09/04 08:13:41;;;;;;;11.35;8.85;;;17.10;99.90;;;;;;5075015;28;20194;-65
2022/09/04 08:16:18;;;;;;;11.43;8.40;;;17.20;99.90;;;;;;5093015;28;20178;-64
2022/09/04 08:19:10;;;;;;;11.15;8.55;;;17.40;99.90;;;;;;5093016;28;20288;-65
2022/09/04 08:21:46;;;;;;;11.02;8.88;;;17.60;99.90;;;;;;5090005;28;20221;-66
2022/09/04 08:24:40;;;;;;;9.73;8.23;;;17.80;99.90;;;;;;5092957;28;20205;-65
2022/09/04 08:27:22;;;;;;;11.93;8.65;;;17.90;99.90;;;;;;5087010;28;20223;-66
2022/09/04 08:30:07;;;;;;;14.75;11.35;;;18.00;99.90;;;;;;5084295;28;20219;-65
2022/09/04 08:33:10;;;;;;;9.45;7.97;;;18.20;99.90;;;;;;5092942;28;20178;-65
2022/09/04 08:35:49;;;;;;;9.43;7.10;;;18.50;99.90;;;;;;5096584;28;20190;-64
2022/09/04 08:38:38;;;;;;;9.20;8.15;;;18.70;99.90;;;;;;5094057;28;20222;-66
2022/09/04 08:41:53;;;;;;;13.43;7.38;;;18.90;99.90;;;;;;5094505;28;20668;-66
2022/09/04 08:44:48;;;;;;;9.65;6.40;;;19.20;99.90;;;;;;5095865;28;20195;-65
2022/09/04 08:47:53;;;;;;;6.65;5.25;;;19.70;99.90;;;;;;5088079;28;20222;-66
2022/09/04 08:50:39;;;;;;;4.95;4.32;;;19.80;99.90;;;;;;5094310;28;20229;-65
2022/09/04 08:53:40;;;;;;;4.13;3.33;;;19.90;99.90;;;;;;5094321;28;20664;-66
2022/09/04 08:56:20;;;;;;;5.45;4.53;;;20.10;99.90;;;;;;5095236;28;20197;-66
2022/09/04 08:59:27;;;;;;;4.32;3.83;;;20.20;99.90;;;;;;5081248;28;20217;-66
2022/09/04 09:02:38;;;;;;;4.15;3.67;;;20.20;99.90;;;;;;5075259;28;20183;-67
2022/09/04 09:05:54;;;;;;;5.75;3.55;;;20.50;99.90;;;;;;5075951;28;20188;-66
2022/09/04 09:09:20;;;;;;;5.45;4.40;;;20.40;99.90;;;;;;5057976;28;20578;-65
2022/09/04 09:12:20;;;;;;;5.85;4.13;;;20.70;99.90;;;;;;5014004;28;20665;-65
2022/09/04 09:15:26;;;;;;;4.97;4.40;;;21.10;99.90;;;;;;5032705;28;20239;-65
2022/09/04 09:18:03;;;;;;;7.60;5.63;;;21.30;99.90;;;;;;5094584;28;20229;-64
2022/09/04 09:20:44;;;;;;;5.35;4.15;;;21.50;99.90;;;;;;5095852;28;20524;-65
2022/09/04 09:23:37;;;;;;;4.00;3.40;;;21.50;99.90;;;;;;5092277;28;20593;-65
2022/09/04 09:26:25;;;;;;;4.38;3.85;;;21.50;99.90;;;;;;5095744;28;20194;-65
2022/09/04 09:29:23;;;;;;;6.88;4.28;;;21.70;99.90;;;;;;5078664;28;20219;-65
2022/09/04 09:32:34;;;;;;;4.95;4.10;;;22.10;99.90;;;;;;5074706;28;20235;-65
2022/09/04 09:35:33;;;;;;;3.95;3.38;;;22.30;99.90;;;;;;5051126;28;20207;-65
2022/09/04 09:38:37;;;;;;;3.08;2.70;;;22.50;99.90;;;;;;5094473;28;20207;-66
2022/09/04 09:41:27;;;;;;;3.80;3.08;;;22.50;99.90;;;;;;5076454;28;20202;-67
2022/09/04 09:44:30;;;;;;;3.03;2.72;;;23.00;99.90;;;;;;5090691;28;20205;-66
2022/09/04 09:47:31;;;;;;;2.70;2.45;;;22.90;99.90;;;;;;5094484;28;20550;-66
2022/09/04 09:50:44;;;;;;;4.57;3.08;;;23.00;99.90;;;;;;5087575;28;20235;-65
2022/09/04 09:54:00;;;;;;;2.67;2.40;;;23.30;99.90;;;;;;5074916;28;20191;-65
2022/09/04 09:57:11;;;;;;;3.45;2.33;;;23.30;99.90;;;;;;5012543;28;20192;-66
2022/09/04 10:00:08;;;;;;;2.20;2.03;;;23.40;99.90;;;;;;5057326;28;20206;-66
2022/09/04 10:03:06;;;;;;;3.70;3.33;;;23.40;99.90;;;;;;5066461;28;20207;-66
2022/09/04 10:06:08;;;;;;;4.32;2.30;;;23.80;99.90;;;;;;5095084;28;20182;-66
2022/09/04 10:09:03;;;;;;;4.63;4.18;;;23.90;99.90;;;;;;5094752;28;20214;-66
2022/09/04 10:12:18;;;;;;;2.78;2.10;;;23.80;99.90;;;;;;5091667;28;20214;-65
2022/09/04 10:15:06;;;;;;;2.15;1.88;;;23.70;99.90;;;;;;5074633;28;20210;-67
2022/09/04 10:18:14;;;;;;;9.75;6.53;;;23.60;99.90;;;;;;5082540;28;20230;-65
2022/09/04 10:21:19;;;;;;;5.10;3.20;;;23.50;99.90;;;;;;5063748;28;20225;-67
2022/09/04 10:24:21;;;;;;;2.58;2.38;;;23.50;99.90;;;;;;5074282;28;20199;-66
2022/09/04 10:27:25;;;;;;;2.97;2.65;;;23.50;99.90;;;;;;5064410;28;20202;-67
2022/09/04 10:30:04;;;;;;;3.17;2.60;;;23.50;99.90;;;;;;5074409;28;20202;-65
2022/09/04 10:33:13;;;;;;;3.05;2.50;;;23.50;99.90;;;;;;5078687;28;20217;-66
2022/09/04 10:36:03;;;;;;;3.08;2.10;;;23.70;99.90;;;;;;5094328;28;20572;-66
2022/09/04 10:42:05;;;;;;;1.83;1.70;;;24.40;99.90;;;;;;5090284;28;20214;-67
2022/09/04 10:45:01;;;;;;;2.20;1.77;;;24.80;98.90;;;;;;5073882;28;20206;-66
2022/09/04 10:47:57;;;;;;;3.60;2.50;;;25.30;97.90;;;;;;5073916;28;20210;-66
2022/09/04 10:50:36;;;;;;;2.55;1.83;;;25.40;96.80;;;;;;5086554;28;20195;-65
2022/09/04 10:53:34;;;;;;;1.92;1.60;;;25.40;96.10;;;;;;5093016;28;20186;-66
2022/09/04 10:56:15;;;;;;;1.73;1.58;;;25.40;94.20;;;;;;5081974;28;20200;-66
2022/09/04 10:59:15;;;;;;;1.40;1.30;;;25.70;93.80;;;;;;5073880;28;20222;-65
2022/09/04 11:02:12;;;;;;;1.58;1.23;;;25.90;92.20;;;;;;5073673;28;20520;-66
2022/09/04 11:05:07;;;;;;;2.08;1.33;;;26.00;93.20;;;;;;5073527;28;20187;-67
2022/09/04 11:08:02;;;;;;;1.70;1.60;;;25.90;93.50;;;;;;5073465;28;20226;-66
2022/09/04 11:10:51;;;;;;;1.73;1.17;;;26.00;91.90;;;;;;5075675;28;20673;-67
2022/09/04 11:13:56;;;;;;;1.45;1.35;;;26.30;91.80;;;;;;5073475;28;20184;-67
2022/09/04 11:16:49;;;;;;;1.83;1.63;;;26.90;91.10;;;;;;5070864;28;20195;-67
2022/09/04 11:19:56;;;;;;;2.47;1.80;;;27.00;90.00;;;;;;5072775;28;20202;-66
2022/09/04 11:22:57;;;;;;;3.75;2.33;;;27.10;91.00;;;;;;5055644;28;20606;-66
2022/09/04 11:26:14;;;;;;;1.50;1.40;;;27.10;92.10;;;;;;5076444;28;20252;-66
2022/09/04 11:29:03;;;;;;;2.33;1.42;;;27.10;92.00;;;;;;5087851;28;20222;-67
2022/09/04 11:31:49;;;;;;;1.45;1.27;;;27.20;91.80;;;;;;5093401;28;20210;-66
2022/09/04 11:35:05;;;;;;;4.07;1.70;;;27.50;91.20;;;;;;5091294;28;20189;-67
2022/09/04 11:38:13;;;;;;;3.20;1.13;;;27.60;90.40;;;;;;5077393;28;20225;-67
2022/09/04 11:41:30;;;;;;;1.42;1.30;;;27.70;90.00;;;;;;5072046;28;20198;-66
2022/09/04 11:44:34;;;;;;;2.85;1.55;;;27.80;88.80;;;;;;5057902;28;20210;-66
2022/09/04 11:47:47;;;;;;;2.38;1.27;;;27.80;88.40;;;;;;5084365;28;20199;-66
2022/09/04 11:50:30;;;;;;;1.50;1.25;;;27.80;86.40;;;;;;5089424;28;20558;-65
2022/09/04 11:53:31;;;;;;;1.55;1.40;;;27.40;88.60;;;;;;5079079;28;20723;-66
2022/09/04 11:56:20;;;;;;;1.20;1.10;;;26.90;90.20;;;;;;5047942;28;20221;-66
2022/09/04 11:59:15;;;;;;;2.22;1.20;;;26.60;89.60;;;;;;5093079;28;20220;-66
2022/09/04 12:02:20;;;;;;;1.27;1.17;;;26.20;88.90;;;;;;5093174;28;20194;-65
2022/09/04 12:05:08;;;;;;;1.92;1.10;;;26.00;89.50;;;;;;5081186;28;20211;-64
2022/09/04 12:08:04;;;;;;;2.15;1.25;;;26.10;90.10;;;;;;5090703;28;20222;-66
2022/09/04 12:11:03;;;;;;;2.25;1.20;;;26.30;90.50;;;;;;5089970;28;20660;-64
2022/09/04 12:13:58;;;;;;;1.85;1.60;;;26.70;87.60;;;;;;5063723;28;20249;-64
2022/09/04 12:16:49;;;;;;;1.30;1.20;;;26.80;90.20;;;;;;5097164;28;20185;-66
2022/09/04 12:19:44;;;;;;;2.47;1.30;;;27.00;89.00;;;;;;5097251;28;20198;-66
2022/09/04 12:22:56;;;;;;;1.92;1.30;;;27.40;87.40;;;;;;5094469;28;20214;-64
2022/09/04 12:26:10;;;;;;;3.58;2.83;;;27.50;86.50;;;;;;5094803;28;20213;-65
2022/09/04 12:29:11;;;;;;;2.92;2.10;;;27.60;89.30;;;;;;5084472;28;20755;-67
2022/09/04 12:32:05;;;;;;;1.67;1.30;;;27.80;86.40;;;;;;5075782;28;20214;-67
2022/09/04 12:34:53;;;;;;;2.65;1.50;;;27.80;85.60;;;;;;5084068;28;20198;-65
2022/09/04 12:38:06;;;;;;;1.35;1.20;;;27.90;85.50;;;;;;5096675;28;20570;-65
2022/09/04 12:40:44;;;;;;;1.52;1.42;;;28.20;85.00;;;;;;5014054;28;20244;-66
2022/09/04 12:43:20;;;;;;;1.77;1.27;;;28.30;84.50;;;;;;5072590;28;20203;-66
2022/09/04 12:46:04;;;;;;;1.55;1.33;;;28.40;83.00;;;;;;5076369;28;20568;-66
2022/09/04 12:48:41;;;;;;;1.40;1.20;;;28.60;85.90;;;;;;5075360;28;20585;-65
2022/09/04 12:51:13;;;;;;;1.73;1.15;;;28.70;83.10;;;;;;5076261;28;20198;-66
2022/09/04 12:54:22;;;;;;;1.52;0.95;;;28.90;80.00;;;;;;5075260;28;20608;-67
2022/09/04 12:57:06;;;;;;;2.80;1.45;;;29.00;77.20;;;;;;5075418;28;20199;-65
2022/09/04 12:59:45;;;;;;;1.23;1.10;;;29.30;75.70;;;;;;5076333;28;20195;-66
2022/09/04 13:02:27;;;;;;;1.85;0.88;;;29.30;76.90;;;;;;5075883;28;20187;-65
2022/09/04 13:05:05;;;;;;;1.85;1.10;;;29.20;76.30;;;;;;5075413;28;20198;-65
2022/09/04 13:07:51;;;;;;;1.80;1.20;;;29.10;78.00;;;;;;5076030;28;20230;-65
2022/09/04 13:10:31;;;;;;;1.10;0.98;;;29.00;79.30;;;;;;5088981;28;20198;-65
2022/09/04 13:13:14;;;;;;;1.30;1.20;;;28.70;84.50;;;;;;5092681;28;20218;-64
2022/09/04 13:15:56;;;;;;;1.40;0.98;;;28.40;84.20;;;;;;5096131;28;20179;-66
2022/09/04 13:18:45;;;;;;;2.17;1.00;;;28.70;75.00;;;;;;5095828;28;20292;-65
2022/09/04 13:21:25;;;;;;;1.10;1.00;;;29.00;74.70;;;;;;5090597;28;20190;-65
2022/09/04 13:24:11;;;;;;;1.45;1.02;;;29.10;75.20;;;;;;5092354;28;20202;-66
2022/09/04 13:26:54;;;;;;;1.77;0.98;;;29.10;72.90;;;;;;5087025;28;20209;-67
2022/09/04 13:29:39;;;;;;;0.82;0.82;;;29.20;73.80;;;;;;5074409;28;20199;-65
2022/09/04 13:32:27;;;;;;;1.10;1.00;;;29.00;73.50;;;;;;5074233;28;20209;-65
2022/09/04 13:35:10;;;;;;;1.50;0.95;;;28.80;74.00;;;;;;5075387;28;20190;-65
2022/09/04 13:38:06;;;;;;;1.40;1.10;;;28.80;76.50;;;;;;5075454;28;20223;-65
2022/09/04 13:40:58;;;;;;;1.25;1.13;;;28.90;74.30;;;;;;5090310;28;20565;-66
2022/09/04 13:44:00;;;;;;;2.25;1.27;;;29.00;76.40;;;;;;5080700;28;20202;-66
2022/09/04 13:46:33;;;;;;;2.85;1.33;;;29.00;73.60;;;;;;5081104;28;20575;-65
2022/09/04 13:49:07;;;;;;;2.33;1.05;;;28.90;73.50;;;;;;5087627;28;20218;-65
2022/09/04 13:51:43;;;;;;;1.67;1.10;;;29.10;73.70;;;;;;5092879;28;20195;-65
2022/09/04 13:54:16;;;;;;;1.10;1.00;;;29.20;75.60;;;;;;5090811;28;20221;-66
2022/09/04 13:56:52;;;;;;;1.70;1.17;;;29.20;75.30;;;;;;5095197;28;20195;-66
2022/09/04 13:59:23;;;;;;;2.55;1.60;;;29.20;73.70;;;;;;5090296;28;20543;-68
2022/09/04 14:01:57;;;;;;;2.75;1.00;;;29.10;74.50;;;;;;5075174;28;20195;-65
2022/09/04 14:04:32;;;;;;;2.03;1.42;;;29.10;73.10;;;;;;5074813;28;20194;-65
2022/09/04 14:07:10;;;;;;;1.30;1.00;;;29.00;72.80;;;;;;5074887;28;20191;-65
2022/09/04 14:09:44;;;;;;;1.52;1.10;;;28.70;72.10;;;;;;5082382;28;20194;-64
2022/09/04 14:12:37;;;;;;;1.30;1.20;;;28.70;73.60;;;;;;5089890;28;20278;-65
2022/09/04 14:15:27;;;;;;;1.77;1.20;;;28.70;75.30;;;;;;5086878;28;20566;-65
2022/09/04 14:18:15;;;;;;;1.45;1.35;;;28.60;73.30;;;;;;5091507;28;20558;-65
2022/09/04 14:20:56;;;;;;;1.55;1.10;;;28.70;71.60;;;;;;5084752;28;20199;-66
2022/09/04 14:23:41;;;;;;;1.45;1.20;;;28.60;73.10;;;;;;5087839;28;20220;-65
2022/09/04 14:26:20;;;;;;;1.02;0.93;;;28.60;74.50;;;;;;5074637;28;20206;-65
2022/09/04 14:28:56;;;;;;;2.60;1.50;;;28.60;73.80;;;;;;5074074;28;20575;-67
2022/09/04 14:31:34;;;;;;;1.55;1.20;;;28.40;75.50;;;;;;5073588;28;20653;-65